createdAt,value
2018-09-08T00:00:35.616Z,20.53
2018-09-08T00:01:15.017Z,16.97
2018-09-08T00:01:52.968Z,16.90
2018-09-08T00:02:32.078Z,20.47
2018-09-08T00:03:10.153Z,25.43
2018-09-08T00:03:48.225Z,20.43
2018-09-08T00:04:26.290Z,17.33
2018-09-08T00:05:04.196Z,18.33
2018-09-08T00:05:42.149Z,15.40
2018-09-08T00:06:25.146Z,31.47
2018-09-08T00:07:07.188Z,20.40
2018-09-08T00:07:45.277Z,12.07
2018-09-08T00:08:23.261Z,24.90
2018-09-08T00:09:01.424Z,13.73
2018-09-08T00:09:39.604Z,32.40
2018-09-08T00:10:17.750Z,16.70
2018-09-08T00:10:55.778Z,18.00
2018-09-08T00:11:33.957Z,19.37
2018-09-08T00:12:11.981Z,22.70
2018-09-08T00:12:49.972Z,15.73
2018-09-08T00:13:28.058Z,23.40
2018-09-08T00:14:06.265Z,18.23
2018-09-08T00:14:42.323Z,16.70
2018-09-08T00:15:24.319Z,17.80
2018-09-08T00:16:07.694Z,13.70
2018-09-08T00:16:49.947Z,18.03
2018-09-08T00:17:31.946Z,17.60
2018-09-08T00:18:14.157Z,25.57
2018-09-08T00:18:56.143Z,23.07
2018-09-08T00:19:38.404Z,14.47
2018-09-08T00:20:21.097Z,23.77
2018-09-08T00:21:03.073Z,16.73
2018-09-08T00:21:45.112Z,14.57
2018-09-08T00:22:27.043Z,16.77
2018-09-08T00:23:08.947Z,13.20
2018-09-08T00:23:51.061Z,16.80
2018-09-08T00:24:33.052Z,14.53
2018-09-08T00:25:15.169Z,21.13
2018-09-08T00:25:57.333Z,19.47
2018-09-08T00:26:34.415Z,23.27
2018-09-08T00:27:10.662Z,16.77
2018-09-08T00:27:58.577Z,17.37
2018-09-08T00:28:41.725Z,17.43
2018-09-08T00:29:23.865Z,19.20
2018-09-08T00:30:05.394Z,16.47
2018-09-08T00:30:43.818Z,13.63
2018-09-08T00:31:23.027Z,16.10
2018-09-08T00:32:01.606Z,15.10
2018-09-08T00:32:41.117Z,15.77
2018-09-08T00:33:19.153Z,15.13
2018-09-08T00:33:57.149Z,16.53
2018-09-08T00:34:35.174Z,22.00
2018-09-08T00:35:13.250Z,16.90
2018-09-08T00:35:51.275Z,31.70
2018-09-08T00:36:29.350Z,19.73
2018-09-08T00:37:07.406Z,20.90
2018-09-08T00:37:45.481Z,13.47
2018-09-08T00:38:23.526Z,26.37
2018-09-08T00:39:01.537Z,13.43
2018-09-08T00:39:39.925Z,17.47
2018-09-08T00:40:17.950Z,23.77
2018-09-08T00:40:55.996Z,18.93
2018-09-08T00:41:34.039Z,16.40
2018-09-08T00:42:12.046Z,19.27
2018-09-08T00:42:50.270Z,17.27
2018-09-08T00:43:28.339Z,15.07
2018-09-08T00:44:06.567Z,19.00
2018-09-08T00:44:44.557Z,24.10
2018-09-08T00:45:22.466Z,22.10
2018-09-08T00:46:00.357Z,21.30
2018-09-08T00:46:38.333Z,19.53
2018-09-08T00:47:16.351Z,20.97
2018-09-08T00:47:54.360Z,19.40
2018-09-08T00:48:32.484Z,19.47
2018-09-08T00:49:10.466Z,24.00
2018-09-08T00:49:48.706Z,19.80
2018-09-08T00:50:26.695Z,17.87
2018-09-08T00:51:04.621Z,25.33
2018-09-08T00:51:42.736Z,17.43
2018-09-08T00:52:20.813Z,23.73
2018-09-08T00:52:59.338Z,19.03
2018-09-08T00:53:37.368Z,19.20
2018-09-08T00:54:15.269Z,17.83
2018-09-08T00:54:53.314Z,25.30
2018-09-08T00:55:31.481Z,24.90
2018-09-08T00:56:09.632Z,12.00
2018-09-08T00:56:47.733Z,14.90
2018-09-08T00:57:25.617Z,20.40
2018-09-08T00:58:03.794Z,25.13
2018-09-08T00:58:45.231Z,20.50
2018-09-08T00:59:23.180Z,21.47
2018-09-08T01:00:01.242Z,24.63
2018-09-08T01:00:39.338Z,15.03
2018-09-08T01:01:18.069Z,14.37
2018-09-08T01:01:56.124Z,16.33
2018-09-08T01:02:34.412Z,16.93
2018-09-08T01:03:12.415Z,23.93
2018-09-08T01:03:50.446Z,22.13
2018-09-08T01:04:28.570Z,23.67
2018-09-08T01:05:06.557Z,22.80
2018-09-08T01:05:44.872Z,18.50
2018-09-08T01:06:23.194Z,11.23
2018-09-08T01:07:01.290Z,17.43
2018-09-08T01:07:39.487Z,15.40
2018-09-08T01:08:17.769Z,16.73
2018-09-08T01:08:56.028Z,29.63
2018-09-08T01:09:34.423Z,26.77
2018-09-08T01:10:12.871Z,28.40
2018-09-08T01:10:51.279Z,18.73
2018-09-08T01:11:29.547Z,17.00
2018-09-08T01:12:07.821Z,14.70
2018-09-08T01:12:46.183Z,18.03
2018-09-08T01:13:24.341Z,23.10
2018-09-08T01:14:02.482Z,26.57
2018-09-08T01:14:40.383Z,14.40
2018-09-08T01:15:18.316Z,19.60
2018-09-08T01:15:56.333Z,17.93
2018-09-08T01:16:34.430Z,19.20
2018-09-08T01:17:12.418Z,26.10
2018-09-08T01:17:50.437Z,26.13
2018-09-08T01:18:28.378Z,27.13
2018-09-08T01:19:06.806Z,25.23
2018-09-08T01:19:44.672Z,24.00
2018-09-08T01:20:22.801Z,27.27
2018-09-08T01:21:00.683Z,25.30
2018-09-08T01:21:38.758Z,12.03
2018-09-08T01:22:16.738Z,20.83
2018-09-08T01:22:54.647Z,18.30
2018-09-08T01:23:32.802Z,23.57
2018-09-08T01:24:10.827Z,14.47
2018-09-08T01:24:48.903Z,20.07
2018-09-08T01:25:26.886Z,20.57
2018-09-08T01:26:04.898Z,21.77
2018-09-08T01:26:43.030Z,19.90
2018-09-08T01:27:20.928Z,16.80
2018-09-08T01:27:58.787Z,20.70
2018-09-08T01:28:36.896Z,22.73
2018-09-08T01:29:14.940Z,33.07
2018-09-08T01:29:52.885Z,18.53
2018-09-08T01:30:30.879Z,25.60
2018-09-08T01:31:08.907Z,18.20
2018-09-08T01:31:47.339Z,19.67
2018-09-08T01:32:25.390Z,16.97
2018-09-08T01:33:03.411Z,18.53
2018-09-08T01:33:41.461Z,22.40
2018-09-08T01:34:20.101Z,36.20
2018-09-08T01:34:57.959Z,31.53
2018-09-08T01:35:36.029Z,32.10
2018-09-08T01:36:13.947Z,16.87
2018-09-08T01:36:52.016Z,30.13
2018-09-08T01:37:29.958Z,25.87
2018-09-08T01:38:07.898Z,32.30
2018-09-08T01:38:45.923Z,19.50
2018-09-08T01:39:23.883Z,20.50
2018-09-08T01:40:01.807Z,19.83
2018-09-08T01:40:39.807Z,21.53
2018-09-08T01:41:17.729Z,17.40
2018-09-08T01:41:55.641Z,20.23
2018-09-08T01:42:33.625Z,17.90
2018-09-08T01:43:11.763Z,21.07
2018-09-08T01:43:49.834Z,22.80
2018-09-08T01:44:29.129Z,15.57
2018-09-08T01:45:07.081Z,19.97
2018-09-08T01:45:44.985Z,17.87
2018-09-08T01:46:22.960Z,18.13
2018-09-08T01:47:01.054Z,15.17
2018-09-08T01:47:39.333Z,30.23
2018-09-08T01:48:17.264Z,17.50
2018-09-08T01:48:55.280Z,18.80
2018-09-08T01:49:33.145Z,16.83
2018-09-08T01:50:11.359Z,13.30
2018-09-08T01:50:49.384Z,14.27
2018-09-08T01:51:28.327Z,15.03
2018-09-08T01:52:06.364Z,15.57
2018-09-08T01:52:44.368Z,21.20
2018-09-08T01:53:22.320Z,23.63
2018-09-08T01:54:00.386Z,16.00
2018-09-08T01:54:38.232Z,22.70
2018-09-08T01:55:18.038Z,18.73
2018-09-08T01:55:55.957Z,22.07
2018-09-08T01:56:34.032Z,17.53
2018-09-08T01:57:11.988Z,14.77
2018-09-08T01:57:50.335Z,13.03
2018-09-08T01:58:28.352Z,20.97
2018-09-08T01:59:06.394Z,22.50
2018-09-08T01:59:44.496Z,34.23
2018-09-08T02:00:22.411Z,16.47
2018-09-08T02:01:00.257Z,13.67
2018-09-08T02:01:38.177Z,24.90
2018-09-08T02:02:16.967Z,28.05
2018-09-08T02:02:54.807Z,13.47
2018-09-08T02:03:32.826Z,14.40
2018-09-08T02:04:10.781Z,17.80
2018-09-08T02:04:48.792Z,18.57
2018-09-08T02:05:26.705Z,16.10
2018-09-08T02:06:04.797Z,17.03
2018-09-08T02:06:43.733Z,30.00
2018-09-08T02:07:22.001Z,15.60
2018-09-08T02:08:00.029Z,18.73
2018-09-08T02:08:37.948Z,24.57
2018-09-08T02:09:17.110Z,19.23
2018-09-08T02:09:54.967Z,21.23
2018-09-08T02:10:32.935Z,16.77
2018-09-08T02:11:11.328Z,18.53
2018-09-08T02:11:49.593Z,17.60
2018-09-08T02:12:27.550Z,19.33
2018-09-08T02:13:05.555Z,23.90
2018-09-08T02:13:43.597Z,19.17
2018-09-08T02:14:21.550Z,27.20
2018-09-08T02:14:59.502Z,14.97
2018-09-08T02:15:37.409Z,23.97
2018-09-08T02:16:15.396Z,21.63
2018-09-08T02:16:53.329Z,18.23
2018-09-08T02:17:31.320Z,14.77
2018-09-08T02:18:09.328Z,23.03
2018-09-08T02:18:47.572Z,14.23
2018-09-08T02:19:25.568Z,12.53
2018-09-08T02:20:03.542Z,15.47
2018-09-08T02:20:41.484Z,22.00
2018-09-08T02:21:19.527Z,27.33
2018-09-08T02:21:57.565Z,20.77
2018-09-08T02:22:35.499Z,18.73
2018-09-08T02:23:13.504Z,22.20
2018-09-08T02:23:51.605Z,23.37
2018-09-08T02:24:29.481Z,27.97
2018-09-08T02:25:08.278Z,23.40
2018-09-08T02:25:46.208Z,20.47
2018-09-08T02:26:24.264Z,17.67
2018-09-08T02:27:02.188Z,25.37
2018-09-08T02:27:40.199Z,21.97
2018-09-08T02:28:18.227Z,19.00
2018-09-08T02:28:56.182Z,22.43
2018-09-08T02:29:34.252Z,26.57
2018-09-08T02:30:12.392Z,20.30
2018-09-08T02:30:50.305Z,26.07
2018-09-08T02:31:28.357Z,22.43
2018-09-08T02:32:06.396Z,26.13
2018-09-08T02:32:44.363Z,32.43
2018-09-08T02:33:22.350Z,25.87
2018-09-08T02:34:00.328Z,22.63
2018-09-08T02:34:39.255Z,19.00
2018-09-08T02:35:17.278Z,21.00
2018-09-08T02:35:55.269Z,22.50
2018-09-08T02:36:33.272Z,36.73
2018-09-08T02:37:11.227Z,22.77
2018-09-08T02:37:49.245Z,25.10
2018-09-08T02:38:27.116Z,26.20
2018-09-08T02:39:05.212Z,29.57
2018-09-08T02:39:43.175Z,23.77
2018-09-08T02:40:21.231Z,17.53
2018-09-08T02:40:59.281Z,24.60
2018-09-08T02:41:37.240Z,20.03
2018-09-08T02:42:15.137Z,31.23
2018-09-08T02:42:53.101Z,30.07
2018-09-08T02:43:31.152Z,19.63
2018-09-08T02:44:09.056Z,25.00
2018-09-08T02:44:47.075Z,26.37
2018-09-08T02:45:25.955Z,20.77
2018-09-08T02:46:03.836Z,22.37
2018-09-08T02:46:42.280Z,23.40
2018-09-08T02:47:20.194Z,16.10
2018-09-08T02:47:58.236Z,33.90
2018-09-08T02:48:36.392Z,27.23
2018-09-08T02:49:14.380Z,21.23
2018-09-08T02:50:01.218Z,19.33
2018-09-08T02:50:39.954Z,13.10
2018-09-08T02:51:14.724Z,18.47
2018-09-08T02:51:49.468Z,12.80
2018-09-08T02:52:24.329Z,18.00
2018-09-08T02:52:59.242Z,14.70
2018-09-08T02:53:34.022Z,22.77
2018-09-08T02:54:08.814Z,15.53
2018-09-08T02:54:43.526Z,15.83
2018-09-08T02:55:18.304Z,29.87
2018-09-08T02:55:53.019Z,14.63
2018-09-08T02:56:27.818Z,13.37
2018-09-08T02:57:02.641Z,11.73
2018-09-08T02:57:37.359Z,12.80
2018-09-08T02:58:12.102Z,15.83
2018-09-08T02:58:46.841Z,20.23
2018-09-08T02:59:21.576Z,12.07
2018-09-08T02:59:56.737Z,17.17
2018-09-08T03:00:31.938Z,17.97
2018-09-08T03:01:06.744Z,13.90
2018-09-08T03:01:41.488Z,17.13
2018-09-08T03:02:16.277Z,20.00
2018-09-08T03:02:51.171Z,17.60
2018-09-08T03:03:25.951Z,15.27
2018-09-08T03:04:00.709Z,9.90
2018-09-08T03:04:35.446Z,9.67
2018-09-08T03:05:10.222Z,14.50
2018-09-08T03:05:44.958Z,12.37
2018-09-08T03:06:19.680Z,13.20
2018-09-08T03:06:54.497Z,8.53
2018-09-08T03:07:29.266Z,12.80
2018-09-08T03:08:03.985Z,15.03
2018-09-08T03:08:38.740Z,14.80
2018-09-08T03:09:13.494Z,10.70
2018-09-08T03:09:48.381Z,11.23
2018-09-08T03:10:23.837Z,15.63
2018-09-08T03:10:58.700Z,13.30
2018-09-08T03:11:33.468Z,12.80
2018-09-08T03:12:08.333Z,15.17
2018-09-08T03:12:43.102Z,14.57
2018-09-08T03:13:17.841Z,20.80
2018-09-08T03:13:52.675Z,14.47
2018-09-08T03:14:27.434Z,13.10
2018-09-08T03:15:02.248Z,10.47
2018-09-08T03:15:36.975Z,12.50
2018-09-08T03:16:11.680Z,12.10
2018-09-08T03:16:46.460Z,13.47
2018-09-08T03:17:21.318Z,11.53
2018-09-08T03:17:56.076Z,12.83
2018-09-08T03:18:32.161Z,12.30
2018-09-08T03:19:06.921Z,18.60
2018-09-08T03:19:41.632Z,14.67
2018-09-08T03:20:16.423Z,7.90
2018-09-08T03:20:51.279Z,15.67
2018-09-08T03:21:26.075Z,9.00
2018-09-08T03:22:00.892Z,17.40
2018-09-08T03:22:35.590Z,16.67
2018-09-08T03:23:10.364Z,16.00
2018-09-08T03:23:45.104Z,11.87
2018-09-08T03:24:19.767Z,11.23
2018-09-08T03:24:54.543Z,19.20
2018-09-08T03:25:29.299Z,11.77
2018-09-08T03:26:04.129Z,17.90
2018-09-08T03:26:38.835Z,30.70
2018-09-08T03:27:13.616Z,16.43
2018-09-08T03:27:48.340Z,20.00
2018-09-08T03:28:23.064Z,31.47
2018-09-08T03:28:57.811Z,22.93
2018-09-08T03:29:32.601Z,24.40
2018-09-08T03:30:07.467Z,13.63
2018-09-08T03:30:42.165Z,20.73
2018-09-08T03:31:17.015Z,16.20
2018-09-08T03:31:51.816Z,18.27
2018-09-08T03:32:26.753Z,10.33
2018-09-08T03:33:01.531Z,13.67
2018-09-08T03:33:36.305Z,19.60
2018-09-08T03:34:11.085Z,14.60
2018-09-08T03:34:45.969Z,13.90
2018-09-08T03:35:20.740Z,11.13
2018-09-08T03:35:55.503Z,12.20
2018-09-08T03:36:30.398Z,10.30
2018-09-08T03:37:05.093Z,9.77
2018-09-08T03:37:39.834Z,12.57
2018-09-08T03:38:14.644Z,6.97
2018-09-08T03:38:49.487Z,14.17
2018-09-08T03:39:24.229Z,22.43
2018-09-08T03:39:58.925Z,16.30
2018-09-08T03:40:33.730Z,13.23
2018-09-08T03:41:08.669Z,9.47
2018-09-08T03:41:43.399Z,8.80
2018-09-08T03:42:18.158Z,14.43
2018-09-08T03:42:52.970Z,18.47
2018-09-08T03:43:27.740Z,20.40
2018-09-08T03:44:02.457Z,11.20
2018-09-08T03:44:37.225Z,14.80
2018-09-08T03:45:11.976Z,21.20
2018-09-08T03:45:46.653Z,15.77
2018-09-08T03:46:21.693Z,13.43
2018-09-08T03:46:56.540Z,15.17
2018-09-08T03:47:31.369Z,15.10
2018-09-08T03:48:06.167Z,20.03
2018-09-08T03:48:40.886Z,14.73
2018-09-08T03:49:15.642Z,15.37
2018-09-08T03:49:50.429Z,13.40
2018-09-08T03:50:25.282Z,19.73
2018-09-08T03:51:00.039Z,10.50
2018-09-08T03:51:34.858Z,19.00
2018-09-08T03:52:09.643Z,13.33
2018-09-08T03:52:44.392Z,16.83
2018-09-08T03:53:19.190Z,13.80
2018-09-08T03:53:53.906Z,19.33
2018-09-08T03:54:28.660Z,17.47
2018-09-08T03:55:03.364Z,8.23
2018-09-08T03:55:38.201Z,23.37
2018-09-08T03:56:13.388Z,13.78
2018-09-08T03:56:48.265Z,19.23
2018-09-08T03:57:23.027Z,16.10
2018-09-08T03:57:57.797Z,20.77
2018-09-08T03:58:32.649Z,18.40
2018-09-08T03:59:07.480Z,13.23
2018-09-08T03:59:42.278Z,11.00
2018-09-08T04:00:17.054Z,18.77
2018-09-08T04:00:52.075Z,16.17
2018-09-08T04:01:26.819Z,15.23
2018-09-08T04:02:01.612Z,21.37
2018-09-08T04:02:36.413Z,14.20
2018-09-08T04:03:14.663Z,19.60
2018-09-08T04:03:52.761Z,16.17
2018-09-08T04:04:30.866Z,26.13
2018-09-08T04:05:08.926Z,16.47
2018-09-08T04:05:46.774Z,13.37
2018-09-08T04:06:24.787Z,19.43
2018-09-08T04:07:02.799Z,13.77
2018-09-08T04:07:40.874Z,12.30
2018-09-08T04:08:18.899Z,9.90
2018-09-08T04:08:57.291Z,9.50
2018-09-08T04:09:35.253Z,10.83
2018-09-08T04:10:13.242Z,11.07
2018-09-08T04:10:51.354Z,23.83
2018-09-08T04:11:29.466Z,9.37
2018-09-08T04:12:07.632Z,9.87
2018-09-08T04:12:45.614Z,18.60
2018-09-08T04:13:23.693Z,11.90
2018-09-08T04:14:01.769Z,11.50
2018-09-08T04:14:39.695Z,14.57
2018-09-08T04:15:17.605Z,24.63
2018-09-08T04:15:55.757Z,13.80
2018-09-08T04:16:34.213Z,19.20
2018-09-08T04:17:12.252Z,11.97
2018-09-08T04:17:50.220Z,12.53
2018-09-08T04:18:28.249Z,8.47
2018-09-08T04:19:06.354Z,12.67
2018-09-08T04:19:44.321Z,8.77
2018-09-08T04:20:23.120Z,17.47
2018-09-08T04:21:01.237Z,5.70
2018-09-08T04:21:39.247Z,9.07
2018-09-08T04:22:17.143Z,7.93
2018-09-08T04:22:55.119Z,8.27
2018-09-08T04:23:33.267Z,10.23
2018-09-08T04:24:11.323Z,12.07
2018-09-08T04:24:49.398Z,11.33
2018-09-08T04:25:27.361Z,10.70
2018-09-08T04:26:05.464Z,6.70
2018-09-08T04:26:43.463Z,5.30
2018-09-08T04:27:21.588Z,8.33
2018-09-08T04:27:59.484Z,7.03
2018-09-08T04:28:37.465Z,7.40
2018-09-08T04:29:15.479Z,13.77
2018-09-08T04:29:53.456Z,6.70
2018-09-08T04:30:32.368Z,6.23
2018-09-08T04:31:10.447Z,11.20
2018-09-08T04:31:48.442Z,7.67
2018-09-08T04:32:26.509Z,14.80
2018-09-08T04:33:04.679Z,7.80
2018-09-08T04:33:42.639Z,12.50
2018-09-08T04:34:20.608Z,9.93
2018-09-08T04:34:58.541Z,15.50
2018-09-08T04:35:36.520Z,7.00
2018-09-08T04:36:14.498Z,8.13
2018-09-08T04:36:52.864Z,7.63
2018-09-08T04:37:30.775Z,9.43
2018-09-08T04:38:08.713Z,8.03
2018-09-08T04:38:46.555Z,10.07
2018-09-08T04:39:24.689Z,16.43
2018-09-08T04:40:02.623Z,8.00
2018-09-08T04:40:40.614Z,7.47
2018-09-08T04:41:18.713Z,7.83
2018-09-08T04:41:56.706Z,9.03
2018-09-08T04:42:34.808Z,8.07
2018-09-08T04:43:12.850Z,6.60
2018-09-08T04:43:50.808Z,6.33
2018-09-08T04:44:28.680Z,13.60
2018-09-08T04:45:06.714Z,7.97
2018-09-08T04:45:44.527Z,4.83
2018-09-08T04:46:22.379Z,5.90
2018-09-08T04:47:00.371Z,8.47
2018-09-08T04:47:38.360Z,8.63
2018-09-08T04:48:17.099Z,7.90
2018-09-08T04:48:54.969Z,13.40
2018-09-08T04:49:32.969Z,5.50
2018-09-08T04:50:10.976Z,12.70
2018-09-08T04:50:48.943Z,8.13
2018-09-08T04:51:26.848Z,6.43
2018-09-08T04:52:05.202Z,7.77
2018-09-08T04:52:43.052Z,5.27
2018-09-08T04:53:21.453Z,8.17
2018-09-08T04:53:59.525Z,9.90
2018-09-08T04:54:37.538Z,8.17
2018-09-08T04:55:15.391Z,9.17
2018-09-08T04:55:53.264Z,6.37
2018-09-08T04:56:31.310Z,7.30
2018-09-08T04:57:09.453Z,7.37
2018-09-08T04:57:47.491Z,6.90
2018-09-08T04:58:25.652Z,13.30
2018-09-08T04:59:03.877Z,7.03
2018-09-08T04:59:41.862Z,13.03
2018-09-08T05:00:19.946Z,10.37
2018-09-08T05:00:57.876Z,10.53
2018-09-08T05:01:35.932Z,8.50
2018-09-08T05:02:13.924Z,25.10
2018-09-08T05:02:52.036Z,9.10
2018-09-08T05:03:29.889Z,6.43
2018-09-08T05:04:07.856Z,12.27
2018-09-08T05:04:45.885Z,7.77
2018-09-08T05:05:23.972Z,4.93
2018-09-08T05:06:01.970Z,6.73
2018-09-08T05:06:39.935Z,8.23
2018-09-08T05:07:17.882Z,6.90
2018-09-08T05:07:56.919Z,11.60
2018-09-08T05:08:34.905Z,6.57
2018-09-08T05:09:14.387Z,5.60
2018-09-08T05:09:52.317Z,11.40
2018-09-08T05:10:30.284Z,7.60
2018-09-08T05:11:08.294Z,6.40
2018-09-08T05:11:46.293Z,10.40
2018-09-08T05:12:24.375Z,12.40
2018-09-08T05:13:02.479Z,6.93
2018-09-08T05:13:40.496Z,10.87
2018-09-08T05:14:18.613Z,7.87
2018-09-08T05:14:56.565Z,12.33
2018-09-08T05:15:34.579Z,23.43
2018-09-08T05:16:12.511Z,10.77
2018-09-08T05:16:50.442Z,9.53
2018-09-08T05:17:29.422Z,8.80
2018-09-08T05:18:07.499Z,10.60
2018-09-08T05:18:46.354Z,8.37
2018-09-08T05:19:24.472Z,12.17
2018-09-08T05:20:02.476Z,4.60
2018-09-08T05:20:40.501Z,8.53
2018-09-08T05:21:18.463Z,6.83
2018-09-08T05:21:56.438Z,7.63
2018-09-08T05:22:34.408Z,8.50
2018-09-08T05:23:12.581Z,5.60
2018-09-08T05:23:50.493Z,4.87
2018-09-08T05:24:28.549Z,7.23
2018-09-08T05:25:06.532Z,10.80
2018-09-08T05:25:44.549Z,11.23
2018-09-08T05:26:22.493Z,7.47
2018-09-08T05:27:00.880Z,8.93
2018-09-08T05:27:38.927Z,5.33
2018-09-08T05:28:17.020Z,5.87
2018-09-08T05:28:54.997Z,10.60
2018-09-08T05:29:33.058Z,10.23
2018-09-08T05:30:11.045Z,7.90
2018-09-08T05:30:48.973Z,14.70
2018-09-08T05:31:27.021Z,13.67
2018-09-08T05:32:05.058Z,11.20
2018-09-08T05:32:43.062Z,7.47
2018-09-08T05:33:21.540Z,9.17
2018-09-08T05:33:59.484Z,7.10
2018-09-08T05:34:37.436Z,9.00
2018-09-08T05:35:15.387Z,7.03
2018-09-08T05:35:53.273Z,13.63
2018-09-08T05:36:31.339Z,11.30
2018-09-08T05:37:09.425Z,9.07
2018-09-08T05:37:47.304Z,10.27
2018-09-08T05:38:25.269Z,9.20
2018-09-08T05:39:03.140Z,13.43
2018-09-08T05:39:41.129Z,11.60
2018-09-08T05:40:19.116Z,8.50
2018-09-08T05:40:57.097Z,6.83
2018-09-08T05:41:34.980Z,8.80
2018-09-08T05:42:13.810Z,7.13
2018-09-08T05:42:51.885Z,10.73
2018-09-08T05:43:29.911Z,14.60
2018-09-08T05:44:07.939Z,10.63
2018-09-08T05:45:28.011Z,8.33
2018-09-08T05:46:05.907Z,14.70
2018-09-08T05:46:43.965Z,8.70
2018-09-08T05:47:22.430Z,12.90
2018-09-08T05:48:00.395Z,8.93
2018-09-08T05:48:38.385Z,8.50
2018-09-08T05:49:16.244Z,12.93
2018-09-08T05:49:54.222Z,6.53
2018-09-08T05:50:32.373Z,7.70
2018-09-08T05:51:10.405Z,25.63
2018-09-08T05:51:48.467Z,9.40
2018-09-08T05:52:26.441Z,8.00
2018-09-08T05:53:04.598Z,5.47
2018-09-08T05:53:42.615Z,10.60
2018-09-08T05:54:20.645Z,11.63
2018-09-08T05:54:58.641Z,8.07
2018-09-08T05:55:36.575Z,5.90
2018-09-08T05:56:14.565Z,15.43
2018-09-08T05:56:52.663Z,6.00
2018-09-08T05:57:30.661Z,13.97
2018-09-08T05:58:08.594Z,6.90
2018-09-08T05:58:46.608Z,8.93
2018-09-08T05:59:24.475Z,22.20
2018-09-08T06:00:02.479Z,9.40
2018-09-08T06:00:40.421Z,14.00
2018-09-08T06:01:18.579Z,11.13
2018-09-08T06:01:56.686Z,7.00
2018-09-08T06:02:34.517Z,8.80
2018-09-08T06:03:12.444Z,9.00
2018-09-08T06:03:50.535Z,5.57
2018-09-08T06:04:28.591Z,10.97
2018-09-08T06:05:06.536Z,7.13
2018-09-08T06:05:44.442Z,9.20
2018-09-08T06:06:22.389Z,14.30
2018-09-08T06:07:05.171Z,10.50
2018-09-08T06:07:43.273Z,11.77
2018-09-08T06:08:21.196Z,5.97
2018-09-08T06:08:59.181Z,10.17
2018-09-08T06:09:37.930Z,8.27
2018-09-08T06:10:16.501Z,13.83
2018-09-08T06:10:54.525Z,11.23
2018-09-08T06:11:32.529Z,8.27
2018-09-08T06:12:10.500Z,5.70
2018-09-08T06:12:48.293Z,7.27
2018-09-08T06:13:26.291Z,10.47
2018-09-08T06:14:04.151Z,12.83
2018-09-08T06:14:42.075Z,6.77
2018-09-08T06:15:20.041Z,5.97
2018-09-08T06:15:57.967Z,6.63
2018-09-08T06:16:36.114Z,6.90
2018-09-08T06:17:13.950Z,9.23
2018-09-08T06:17:51.860Z,7.77
2018-09-08T06:18:29.783Z,11.20
2018-09-08T06:19:07.938Z,13.60
2018-09-08T06:19:46.043Z,8.43
2018-09-08T06:20:24.098Z,10.47
2018-09-08T06:21:02.034Z,7.70
2018-09-08T06:21:40.038Z,9.33
2018-09-08T06:22:17.877Z,5.63
2018-09-08T06:22:55.982Z,6.93
2018-09-08T06:23:33.917Z,35.70
2018-09-08T06:24:11.763Z,10.67
2018-09-08T06:24:50.741Z,7.43
2018-09-08T06:25:28.827Z,5.20
2018-09-08T06:26:06.720Z,9.03
2018-09-08T06:26:44.679Z,8.00
2018-09-08T06:27:22.729Z,8.50
2018-09-08T06:28:01.369Z,6.67
2018-09-08T06:28:40.178Z,18.63
2018-09-08T06:29:18.494Z,4.60
2018-09-08T06:29:56.428Z,18.60
2018-09-08T06:30:34.323Z,8.10
2018-09-08T06:31:12.341Z,6.17
2018-09-08T06:31:50.376Z,5.37
2018-09-08T06:32:28.398Z,5.40
2018-09-08T06:33:06.327Z,8.90
2018-09-08T06:33:44.438Z,8.97
2018-09-08T06:34:22.405Z,8.23
2018-09-08T06:35:00.524Z,9.50
2018-09-08T06:35:38.665Z,4.63
2018-09-08T06:36:16.641Z,11.30
2018-09-08T06:36:54.716Z,11.80
2018-09-08T06:37:32.644Z,11.60
2018-09-08T06:38:10.724Z,4.67
2018-09-08T06:38:48.693Z,6.40
2018-09-08T06:39:26.660Z,11.83
2018-09-08T06:40:46.774Z,3.87
2018-09-08T06:41:25.906Z,4.90
2018-09-08T06:42:03.870Z,8.93
2018-09-08T06:42:41.870Z,6.43
2018-09-08T06:43:19.845Z,4.37
2018-09-08T06:43:57.885Z,8.63
2018-09-08T06:44:36.728Z,9.50
2018-09-08T06:45:14.747Z,11.00
2018-09-08T06:45:52.674Z,7.60
2018-09-08T06:46:30.553Z,9.20
2018-09-08T06:47:09.377Z,9.53
2018-09-08T06:47:47.352Z,8.63
2018-09-08T06:48:25.324Z,10.20
2018-09-08T06:49:03.581Z,8.43
2018-09-08T06:49:41.672Z,7.30
2018-09-08T06:52:11.473Z,11.10
2018-09-08T06:52:49.483Z,10.73
2018-09-08T06:53:27.336Z,11.27
2018-09-08T06:54:05.598Z,13.47
2018-09-08T06:54:43.669Z,7.13
2018-09-08T06:55:21.744Z,11.30
2018-09-08T06:55:59.809Z,9.77
2018-09-08T06:56:37.953Z,7.53
2018-09-08T06:57:15.969Z,9.97
2018-09-08T06:57:53.936Z,6.33
2018-09-08T06:58:31.888Z,9.30
2018-09-08T06:59:09.938Z,8.90
2018-09-08T06:59:47.822Z,12.80
2018-09-08T07:00:25.792Z,13.50
2018-09-08T07:01:03.813Z,11.93
2018-09-08T07:01:41.808Z,10.13
2018-09-08T07:02:19.844Z,9.80
2018-09-08T07:02:57.689Z,11.90
2018-09-08T07:03:35.702Z,10.60
2018-09-08T07:04:13.654Z,11.90
2018-09-08T07:04:51.517Z,13.40
2018-09-08T07:05:29.683Z,16.70
2018-09-08T07:06:07.686Z,10.60
2018-09-08T07:06:45.548Z,13.00
2018-09-08T07:07:23.473Z,8.00
2018-09-08T07:08:01.485Z,7.40
2018-09-08T07:08:39.498Z,5.30
2018-09-08T07:09:17.604Z,11.27
2018-09-08T07:09:55.584Z,6.20
2018-09-08T07:10:33.446Z,12.33
2018-09-08T07:11:11.601Z,7.47
2018-09-08T07:11:49.518Z,6.13
2018-09-08T07:12:27.548Z,5.73
2018-09-08T07:13:06.010Z,7.00
2018-09-08T07:13:43.968Z,8.33
2018-09-08T07:14:21.808Z,7.40
2018-09-08T07:14:59.919Z,7.47
2018-09-08T07:15:37.801Z,12.30
2018-09-08T07:16:15.805Z,15.87
2018-09-08T07:16:53.817Z,19.30
2018-09-08T07:17:32.655Z,9.23
2018-09-08T07:18:10.547Z,9.93
2018-09-08T07:18:48.701Z,6.40
2018-09-08T07:19:26.656Z,11.60
2018-09-08T07:20:04.689Z,8.17
2018-09-08T07:20:42.580Z,7.10
2018-09-08T07:21:20.529Z,10.77
2018-09-08T07:21:58.504Z,6.90
2018-09-08T07:22:36.460Z,11.60
2018-09-08T07:23:14.391Z,11.40
2018-09-08T07:23:52.325Z,13.83
2018-09-08T07:24:30.359Z,10.83
2018-09-08T07:25:08.685Z,14.93
2018-09-08T07:25:46.645Z,9.70
2018-09-08T07:26:24.667Z,9.47
2018-09-08T07:27:03.873Z,11.40
2018-09-08T07:27:41.805Z,17.60
2018-09-08T07:28:19.971Z,15.57
2018-09-08T07:28:57.970Z,11.60
2018-09-08T07:29:35.991Z,16.83
2018-09-08T07:30:14.151Z,31.03
2018-09-08T07:30:52.373Z,22.30
2018-09-08T07:31:30.533Z,22.00
2018-09-08T07:32:08.525Z,22.80
2018-09-08T07:32:46.538Z,24.90
2018-09-08T07:33:24.632Z,33.70
2018-09-08T07:34:02.698Z,27.37
2018-09-08T07:34:40.636Z,25.10
2018-09-08T07:35:18.585Z,25.50
2018-09-08T07:35:56.595Z,28.47
2018-09-08T07:36:34.766Z,24.77
2018-09-08T07:37:12.696Z,27.37
2018-09-08T07:37:50.802Z,19.37
2018-09-08T07:38:31.345Z,20.70
2018-09-08T07:39:12.872Z,19.63
2018-09-08T07:39:50.849Z,13.60
2018-09-08T07:40:28.846Z,15.27
2018-09-08T07:41:07.008Z,15.33
2018-09-08T07:41:44.957Z,12.50
2018-09-08T07:42:22.808Z,13.47
2018-09-08T07:43:01.659Z,15.60
2018-09-08T07:43:39.648Z,14.63
2018-09-08T07:44:17.666Z,19.70
2018-09-08T07:44:55.625Z,14.40
2018-09-08T07:45:33.523Z,17.57
2018-09-08T07:46:11.517Z,20.53
2018-09-08T07:46:49.568Z,13.50
2018-09-08T07:47:27.503Z,10.93
2018-09-08T07:48:05.665Z,15.80
2018-09-08T07:48:43.722Z,14.77
2018-09-08T07:49:21.661Z,21.80
2018-09-08T07:49:59.789Z,16.63
2018-09-08T07:50:37.795Z,21.57
2018-09-08T07:51:15.819Z,15.63
2018-09-08T07:51:53.765Z,13.83
2018-09-08T07:52:31.753Z,22.17
2018-09-08T07:53:10.103Z,13.67
2018-09-08T07:53:48.154Z,21.63
2018-09-08T07:54:26.261Z,20.70
2018-09-08T07:55:04.245Z,25.67
2018-09-08T07:55:42.315Z,23.07
2018-09-08T07:56:20.338Z,13.60
2018-09-08T07:56:58.644Z,15.20
2018-09-08T07:57:36.672Z,16.60
2018-09-08T07:58:14.764Z,15.70
2018-09-08T07:58:52.892Z,13.30
2018-09-08T07:59:30.938Z,23.43
2018-09-08T08:00:09.095Z,17.23
2018-09-08T08:00:49.996Z,13.73
2018-09-08T08:01:28.205Z,15.37
2018-09-08T08:02:06.118Z,17.67
2018-09-08T08:02:44.036Z,24.47
2018-09-08T08:03:22.073Z,22.77
2018-09-08T08:04:00.156Z,16.00
2018-09-08T08:04:38.299Z,16.90
2018-09-08T08:05:16.206Z,22.83
2018-09-08T08:05:54.232Z,23.47
2018-09-08T08:06:32.288Z,14.23
2018-09-08T08:07:15.897Z,16.13
2018-09-08T08:07:53.904Z,17.47
2018-09-08T08:08:31.945Z,9.43
2018-09-08T08:09:11.917Z,20.63
2018-09-08T08:09:50.019Z,16.10
2018-09-08T08:10:28.213Z,17.80
2018-09-08T08:11:06.676Z,11.93
2018-09-08T08:11:44.560Z,11.17
2018-09-08T08:12:22.705Z,14.77
2018-09-08T08:13:00.582Z,18.23
2018-09-08T08:13:38.671Z,13.23